^^
Saratoga-Weather Station Historical Data
Daily Summary for August 27, 2021 Units:  English    Metric   Both
Daily Weekly Monthly Yearly Custom
  High: Low: Average:
Temperature: 36.7 °F 32.4 °F 34.3 °F
Dew Point: 35.4 °F 30.6 °F 32.7 °F
Humidity: 96% 90% 94%
Wind Speed: 4.9mph 0mph 0.6mph
Wind Gust: 8mph - -
Wind- - West
Pressure: 29.8 in 29.7 in -
Precipitation: 0 in    
Historical Graphs
 
 
Tabular Data for August 27, 2021
Time Temperature Dew Point Pressure Wind Wind Speed Wind Gust Humidity Rainfall Rate (Hourly) solar
00:01 33.8 °F 31.1 °F 29.8 in Calm     90% 0 in 0 W/m2
00:06 33.6 °F 31.3 °F 29.8 in Calm     91% 0 in 0 W/m2
00:11 33.4 °F 31.1 °F 29.8 in Calm     91% 0 in 0 W/m2
00:16 33.4 °F 31.3 °F 29.8 in Calm     92% 0 in 0 W/m2
00:21 33.3 °F 31.1 °F 29.8 in Calm   1 mph 92% 0 in 0 W/m2
00:26 33.1 °F 31.1 °F 29.8 in Calm     92% 0 in 0 W/m2
00:31 32.9 °F 30.9 °F 29.8 in Calm   1 mph 92% 0 in 0 W/m2
00:36 32.7 °F 30.7 °F 29.8 in Calm     92% 0 in 0 W/m2
00:41 32.5 °F 30.6 °F 29.8 in Calm     92% 0 in 0 W/m2
00:46 32.5 °F 30.7 °F 29.8 in Calm     93% 0 in 0 W/m2
00:51 32.4 °F 30.6 °F 29.8 in Calm     93% 0 in 0 W/m2
00:56 32.4 °F 30.6 °F 29.8 in Calm     93% 0 in 0 W/m2
01:01 32.5 °F 30.7 °F 29.8 in Calm     93% 0 in 0 W/m2
01:06 32.9 °F 31.3 °F 29.8 in WSW 0.9 mph 3 mph 94% 0 in 0 W/m2
01:11 33.6 °F 32.4 °F 29.8 in West 0.9 mph 3 mph 95% 0 in 0 W/m2
01:16 34.5 °F 33.3 °F 29.8 in WSW 4 mph 4 mph 95% 0 in 0 W/m2
01:21 35.1 °F 33.8 °F 29.8 in Calm   1 mph 95% 0 in 0 W/m2
01:26 35.2 °F 34 °F 29.8 in SW 4 mph 4 mph 95% 0 in 0 W/m2
01:31 35.4 °F 34.2 °F 29.8 in Calm     95% 0 in 0 W/m2
01:36 35.4 °F 34.2 °F 29.8 in West 0.9 mph 2 mph 95% 0 in 0 W/m2
01:41 35.6 °F 34 °F 29.8 in Calm   1 mph 94% 0 in 0 W/m2
01:46 35.8 °F 34.2 °F 29.8 in Calm     94% 0 in 0 W/m2
01:51 35.8 °F 34.2 °F 29.8 in Calm     94% 0 in 0 W/m2
01:56 36 °F 34.3 °F 29.8 in WSW 2 mph 2 mph 94% 0 in 0 W/m2
02:01 36 °F 34.3 °F 29.8 in WSW 2 mph 2 mph 94% 0 in 0 W/m2
02:06 36.1 °F 34.5 °F 29.8 in Calm   1 mph 94% 0 in 0 W/m2
02:11 36.3 °F 34.7 °F 29.8 in West 2 mph 2 mph 94% 0 in 0 W/m2
02:16 36.1 °F 34.5 °F 29.8 in Calm     94% 0 in 0 W/m2
02:21 36 °F 34.2 °F 29.8 in Calm     93% 0 in 0 W/m2
02:26 35.8 °F 34 °F 29.8 in Calm     93% 0 in 0 W/m2
02:31 35.4 °F 33.6 °F 29.8 in Calm     93% 0 in 0 W/m2
02:36 35.1 °F 33.3 °F 29.8 in Calm     93% 0 in 0 W/m2
02:41 34.9 °F 33.1 °F 29.8 in Calm     93% 0 in 0 W/m2
02:46 34.3 °F 32.2 °F 29.8 in Calm     92% 0 in 0 W/m2
02:51 34.2 °F 32.4 °F 29.8 in Calm     93% 0 in 0 W/m2
02:56 33.8 °F 31.6 °F 29.8 in Calm     92% 0 in 0 W/m2
03:01 33.4 °F 31.6 °F 29.8 in West 0.9 mph 2 mph 93% 0 in 0 W/m2
03:07 33.4 °F 31.6 °F 29.8 in Calm     93% 0 in 0 W/m2
03:12 33.3 °F 31.5 °F 29.8 in Calm     93% 0 in 0 W/m2
03:17 33.3 °F 31.5 °F 29.8 in Calm     93% 0 in 0 W/m2
03:22 33.1 °F 31.3 °F 29.8 in Calm     93% 0 in 0 W/m2
03:27 32.9 °F 31.1 °F 29.7 in Calm     93% 0 in 0 W/m2
03:32 32.7 °F 30.9 °F 29.7 in Calm     93% 0 in 0 W/m2
03:37 32.5 °F 30.9 °F 29.7 in Calm     94% 0 in 0 W/m2
03:42 32.5 °F 30.9 °F 29.7 in Calm     94% 0 in 0 W/m2
03:47 32.5 °F 30.9 °F 29.7 in Calm     94% 0 in 0 W/m2
03:52 32.5 °F 30.9 °F 29.7 in Calm     94% 0 in 0 W/m2
03:57 32.7 °F 31.1 °F 29.7 in Calm     94% 0 in 0 W/m2
04:02 32.7 °F 31.1 °F 29.7 in Calm     94% 0 in 0 W/m2
04:07 33.1 °F 31.8 °F 29.7 in Calm   1 mph 95% 0 in 0 W/m2
04:12 33.1 °F 31.8 °F 29.7 in Calm     95% 0 in 0 W/m2
04:17 33.1 °F 31.8 °F 29.7 in Calm     95% 0 in 0 W/m2
04:22 33.3 °F 32 °F 29.7 in Calm     95% 0 in 0 W/m2
04:27 33.3 °F 32 °F 29.7 in Calm     95% 0 in 0 W/m2
04:32 33.4 °F 32.2 °F 29.7 in Calm   1 mph 95% 0 in 0 W/m2
04:37 33.4 °F 32.2 °F 29.7 in Calm     95% 0 in 0 W/m2
04:42 33.4 °F 32.2 °F 29.7 in Calm   1 mph 95% 0 in 0 W/m2
04:47 33.6 °F 32.4 °F 29.7 in Calm     95% 0 in 0 W/m2
04:52 33.8 °F 32.5 °F 29.7 in Calm   1 mph 95% 0 in 0 W/m2
04:57 34 °F 32.7 °F 29.7 in Calm   2 mph 95% 0 in 0 W/m2
05:07 34.3 °F 33.1 °F 29.7 in Calm   2 mph 95% 0 in 0 W/m2
05:12 34.3 °F 33.1 °F 29.7 in Calm   2 mph 95% 0 in 0 W/m2
05:17 34.5 °F 33.3 °F 29.7 in NW 2 mph 3 mph 95% 0 in 0 W/m2
05:22 35.1 °F 33.8 °F 29.7 in WSW 4.9 mph 7 mph 95% 0 in 0 W/m2
05:27 35.6 °F 34.5 °F 29.7 in Calm   2 mph 96% 0 in 0 W/m2
05:32 36.1 °F 35.1 °F 29.7 in WNW 2.9 mph 7 mph 96% 0 in 0 W/m2
05:37 36.3 °F 35.1 °F 29.7 in West 2 mph 7 mph 95% 0 in 0 W/m2
05:42 36.7 °F 35.4 °F 29.7 in West 0.9 mph 7 mph 95% 0 in 0 W/m2
05:47 36.7 °F 35.4 °F 29.7 in NW 2 mph 7 mph 95% 0 in 0 W/m2
05:52 36.7 °F 35.4 °F 29.7 in West 2 mph 8 mph 95% 0 in 0 W/m2
05:57 36.5 °F 34.9 °F 29.7 in SW 0.9 mph 4 mph 94% 0 in 0 W/m2
06:07 36.7 °F 35.1 °F 29.7 in SW 2.9 mph 3 mph 94% 0 in 0 W/m2
06:12 36.7 °F 35.1 °F 29.7 in WNW 2 mph 4 mph 94% 0 in 0 W/m2
06:17 36.7 °F 35.1 °F 29.7 in West 2 mph 6 mph 94% 0 in 0 W/m2
06:27 36.7 °F 35.1 °F 29.7 in West 0.9 mph 5 mph 94% 0 in 0 W/m2
06:32 36.7 °F 35.1 °F 29.7 in WSW 0.9 mph 4 mph 94% 0 in 0 W/m2
Juneau County Weather
Compliments of Weather Underground - 2 mb